Mangueirinha, Brazil
Current Conditions -  °F | °C
As of 2:00 PM on Friday 28 Nov 2014 (Local Time) from SBCH Reporting Station
Few Clouds Few Clouds  
Wind Chill: 86°   Ceiling: Unl
Heat Index: 87°   Visibility: 6mi
Dew Point: 64°   Wind: 10mph
Humidity: 48%   Direction: 110°ESE
Pressure: 30"   Gusts: NA
Location:  25.94°S, 52.18°W
Report Text: SBCH 281600Z 11009KT 9999 FEW023 FEW025TCU 30/18 Q1016
Loading
Personal Weather Stations






























Interactive Weather Map New forecast layout! Learn more

10-Day Weather Forecast

Advertisements
Track Severe Weather on mobile